createdAt,value
2023-05-14T00:01:31.084Z,41.86
2023-05-14T00:03:59.868Z,41.81
2023-05-14T00:06:26.732Z,41.91
2023-05-14T00:08:53.607Z,42.13
2023-05-14T00:11:21.286Z,42.00
2023-05-14T00:13:48.079Z,42.12
2023-05-14T00:16:14.961Z,42.09
2023-05-14T00:18:42.125Z,42.24
2023-05-14T00:21:08.922Z,42.35
2023-05-14T00:23:35.751Z,42.72
2023-05-14T00:26:02.532Z,42.69
2023-05-14T00:28:29.308Z,42.75
2023-05-14T00:30:57.077Z,42.89
2023-05-14T00:33:23.929Z,42.81
2023-05-14T00:35:51.533Z,42.70
2023-05-14T00:38:19.342Z,42.98
2023-05-14T00:43:20.094Z,43.10
2023-05-14T00:45:51.012Z,43.38
2023-05-14T00:48:18.368Z,43.22
2023-05-14T00:50:47.916Z,43.34
2023-05-14T00:53:14.912Z,43.41
2023-05-14T00:55:42.601Z,43.36
2023-05-14T00:58:14.012Z,43.36
2023-05-14T01:00:42.343Z,43.49
2023-05-14T01:03:09.854Z,43.58
2023-05-14T01:06:17.418Z,43.61
2023-05-14T01:09:32.286Z,43.77
2023-05-14T01:12:23.982Z,43.78
2023-05-14T01:15:17.898Z,43.87
2023-05-14T01:17:57.209Z,43.84
2023-05-14T01:20:26.702Z,44.15
2023-05-14T01:22:53.516Z,44.06
2023-05-14T01:25:20.426Z,43.91
2023-05-14T01:28:02.026Z,43.97
2023-05-14T01:30:36.744Z,44.25
2023-05-14T01:33:13.707Z,44.24
2023-05-14T01:35:40.984Z,44.19
2023-05-14T01:38:11.898Z,44.30
2023-05-14T01:40:39.209Z,44.27
2023-05-14T01:43:06.387Z,44.41
2023-05-14T01:45:36.554Z,44.49
2023-05-14T01:48:05.074Z,44.46
2023-05-14T01:50:31.937Z,44.38
2023-05-14T01:52:58.831Z,44.72
2023-05-14T01:55:25.872Z,44.67
2023-05-14T01:57:53.027Z,44.65
2023-05-14T02:00:22.250Z,44.91
2023-05-14T02:02:49.174Z,44.79
2023-05-14T02:05:16.030Z,44.66
2023-05-14T02:07:42.789Z,44.80
2023-05-14T02:10:10.024Z,44.90
2023-05-14T02:12:36.890Z,44.91
2023-05-14T02:15:04.655Z,44.94
2023-05-14T02:17:31.456Z,45.03
2023-05-14T02:19:58.338Z,44.93
2023-05-14T02:22:25.131Z,45.07
2023-05-14T02:24:51.943Z,45.22
2023-05-14T02:27:18.764Z,45.19
2023-05-14T02:29:45.580Z,45.20
2023-05-14T02:32:12.422Z,45.42
2023-05-14T02:34:39.253Z,45.54
2023-05-14T02:37:06.076Z,45.61
2023-05-14T02:39:32.963Z,45.42
2023-05-14T02:41:59.788Z,45.29
2023-05-14T02:44:26.595Z,45.64
2023-05-14T02:46:53.411Z,45.84
2023-05-14T02:49:20.204Z,45.73
2023-05-14T02:51:46.976Z,45.85
2023-05-14T02:54:13.734Z,46.01
2023-05-14T02:56:40.527Z,45.91
2023-05-14T02:59:07.343Z,45.88
2023-05-14T03:01:34.650Z,45.83
2023-05-14T03:04:01.906Z,45.95
2023-05-14T03:06:28.726Z,45.99
2023-05-14T03:08:55.533Z,46.04
2023-05-14T03:11:22.322Z,46.25
2023-05-14T03:13:49.162Z,46.16
2023-05-14T03:16:16.329Z,46.13
2023-05-14T03:18:43.197Z,46.09
2023-05-14T03:21:10.011Z,46.35
2023-05-14T03:23:36.786Z,46.32
2023-05-14T03:26:04.845Z,46.52
2023-05-14T03:28:31.682Z,46.68
2023-05-14T03:30:58.612Z,46.56
2023-05-14T03:33:25.667Z,46.94
2023-05-14T03:35:52.492Z,47.02
2023-05-14T03:38:19.266Z,46.92
2023-05-14T03:40:46.379Z,46.92
2023-05-14T03:43:13.145Z,47.07
2023-05-14T03:45:40.393Z,47.02
2023-05-14T03:48:07.286Z,47.10
2023-05-14T03:50:34.233Z,47.27
2023-05-14T03:53:01.057Z,47.35
2023-05-14T03:55:27.830Z,47.35
2023-05-14T03:57:54.623Z,47.57
2023-05-14T04:00:21.889Z,47.49
2023-05-14T04:02:48.865Z,47.51
2023-05-14T04:05:15.972Z,47.61
2023-05-14T04:07:42.741Z,47.50
2023-05-14T04:10:09.871Z,47.85
2023-05-14T04:12:36.695Z,47.54
2023-05-14T04:15:03.937Z,47.76
2023-05-14T04:17:30.782Z,47.78
2023-05-14T04:19:57.663Z,47.71
2023-05-14T04:22:24.425Z,48.06
2023-05-14T04:24:51.638Z,47.52
2023-05-14T04:27:22.115Z,48.00
2023-05-14T04:29:50.525Z,48.16
2023-05-14T04:32:18.019Z,48.28
2023-05-14T04:34:45.075Z,48.32
2023-05-14T04:37:14.400Z,48.42
2023-05-14T04:39:41.411Z,48.41
2023-05-14T04:42:08.316Z,48.30
2023-05-14T04:44:36.600Z,48.45
2023-05-14T04:47:06.988Z,48.50
2023-05-14T04:49:33.859Z,48.54
2023-05-14T04:52:01.477Z,48.78
2023-05-14T04:54:28.312Z,48.71
2023-05-14T04:56:55.870Z,48.95
2023-05-14T04:59:22.812Z,48.79
2023-05-14T05:01:49.823Z,49.09
2023-05-14T05:04:16.702Z,48.94
2023-05-14T05:06:43.553Z,49.26
2023-05-14T05:09:10.373Z,49.13
2023-05-14T05:11:37.829Z,49.04
2023-05-14T05:14:04.672Z,49.00
2023-05-14T05:16:31.528Z,49.15
2023-05-14T05:18:58.349Z,48.95
2023-05-14T05:21:25.569Z,49.15
2023-05-14T05:23:52.345Z,49.04
2023-05-14T05:26:19.423Z,49.19
2023-05-14T05:28:46.236Z,49.36
2023-05-14T05:31:13.166Z,49.46
2023-05-14T05:33:40.113Z,49.58
2023-05-14T05:36:07.190Z,49.63
2023-05-14T05:38:33.976Z,49.59
2023-05-14T05:41:00.872Z,49.59
2023-05-14T05:43:28.589Z,49.19
2023-05-14T05:45:55.436Z,49.24
2023-05-14T05:48:22.257Z,49.12
2023-05-14T05:50:50.243Z,48.97
2023-05-14T05:53:17.056Z,48.76
2023-05-14T05:55:44.047Z,48.93
2023-05-14T05:58:11.102Z,49.05
2023-05-14T06:00:38.038Z,49.02
2023-05-14T06:03:04.846Z,49.14
2023-05-14T06:05:31.718Z,48.96
2023-05-14T06:07:58.558Z,48.59
2023-05-14T06:10:25.641Z,48.77
2023-05-14T06:12:52.589Z,49.03
2023-05-14T06:15:19.505Z,49.24
2023-05-14T06:17:46.402Z,49.05
2023-05-14T06:20:13.351Z,48.62
2023-05-14T06:22:40.260Z,49.03
2023-05-14T06:25:08.013Z,48.64
2023-05-14T06:27:34.829Z,48.59
2023-05-14T06:30:01.576Z,48.44
2023-05-14T06:32:28.421Z,48.59
2023-05-14T06:34:55.228Z,48.53
2023-05-14T06:37:22.065Z,48.41
2023-05-14T06:39:50.368Z,47.73
2023-05-14T06:42:17.914Z,47.95
2023-05-14T06:44:45.221Z,47.86
2023-05-14T06:47:12.302Z,47.65
2023-05-14T06:49:39.535Z,47.95
2023-05-14T06:52:06.772Z,47.35
2023-05-14T06:54:33.616Z,47.31
2023-05-14T06:57:00.445Z,47.63
2023-05-14T06:59:27.304Z,47.76
2023-05-14T07:01:54.208Z,47.51
2023-05-14T07:04:21.090Z,47.49
2023-05-14T07:06:47.931Z,47.58
2023-05-14T07:09:16.138Z,47.54
2023-05-14T07:11:42.958Z,47.66
2023-05-14T07:14:09.761Z,47.63
2023-05-14T07:16:36.993Z,47.35
2023-05-14T07:19:03.820Z,47.41
2023-05-14T07:21:31.702Z,47.36
2023-05-14T07:23:58.537Z,47.07
2023-05-14T07:26:26.294Z,46.87
2023-05-14T07:28:53.118Z,47.10
2023-05-14T07:31:19.994Z,47.19
2023-05-14T07:33:46.857Z,46.89
2023-05-14T07:36:13.668Z,46.87
2023-05-14T07:38:40.433Z,46.75
2023-05-14T07:41:07.758Z,46.44
2023-05-14T07:43:34.533Z,46.33
2023-05-14T07:46:01.440Z,46.01
2023-05-14T07:48:28.310Z,45.79
2023-05-14T07:50:55.215Z,46.18
2023-05-14T07:53:22.168Z,45.66
2023-05-14T07:55:49.420Z,45.46
2023-05-14T07:58:16.615Z,45.58
2023-05-14T08:00:43.419Z,45.58
2023-05-14T08:03:10.310Z,45.35
2023-05-14T08:05:37.238Z,45.16
2023-05-14T08:08:04.150Z,45.05
2023-05-14T08:10:31.229Z,44.59
2023-05-14T08:12:58.062Z,44.50
2023-05-14T08:15:27.578Z,43.71
2023-05-14T08:17:54.950Z,44.21
2023-05-14T08:20:22.493Z,44.70
2023-05-14T08:22:49.496Z,44.10
2023-05-14T08:25:16.326Z,43.88
2023-05-14T08:27:43.139Z,43.04
2023-05-14T08:30:10.485Z,43.01
2023-05-14T08:32:38.457Z,42.89
2023-05-14T08:35:06.029Z,42.79
2023-05-14T08:37:32.841Z,42.43
2023-05-14T08:39:59.828Z,42.29
2023-05-14T08:42:27.262Z,42.40
2023-05-14T08:45:01.535Z,42.70
2023-05-14T08:47:30.610Z,42.77
2023-05-14T08:50:08.257Z,42.59
2023-05-14T08:52:35.974Z,41.85
2023-05-14T08:55:06.875Z,42.08
2023-05-14T08:57:34.669Z,41.54
2023-05-14T09:00:08.281Z,41.33
2023-05-14T09:02:36.769Z,41.50
2023-05-14T09:05:04.294Z,41.24
2023-05-14T09:07:31.471Z,41.35
2023-05-14T09:09:58.960Z,41.48
2023-05-14T09:12:26.157Z,41.63
2023-05-14T09:14:52.981Z,41.33
2023-05-14T09:17:20.139Z,40.91
2023-05-14T09:19:49.202Z,40.18
2023-05-14T09:22:18.068Z,40.77
2023-05-14T09:24:46.156Z,40.33
2023-05-14T09:27:20.656Z,40.29
2023-05-14T09:29:48.233Z,40.38
2023-05-14T09:32:15.046Z,40.21
2023-05-14T09:34:42.217Z,40.26
2023-05-14T09:37:10.035Z,39.95
2023-05-14T09:39:38.588Z,39.80
2023-05-14T09:42:05.798Z,39.54
2023-05-14T09:44:32.700Z,39.39
2023-05-14T09:46:59.572Z,39.28
2023-05-14T09:49:26.395Z,38.72
2023-05-14T09:51:53.446Z,38.86
2023-05-14T09:54:20.315Z,38.64
2023-05-14T09:56:47.177Z,38.22
2023-05-14T09:59:14.048Z,38.54
2023-05-14T10:01:43.588Z,37.98
2023-05-14T10:04:11.913Z,37.86
2023-05-14T10:06:40.099Z,37.39
2023-05-14T10:09:13.925Z,37.49
2023-05-14T10:11:45.299Z,37.70
2023-05-14T10:14:20.787Z,36.84
2023-05-14T10:16:50.948Z,37.34
2023-05-14T10:19:21.047Z,37.12
2023-05-14T10:22:05.790Z,36.90
2023-05-14T10:24:33.331Z,35.60
2023-05-14T10:27:00.764Z,35.42
2023-05-14T10:29:38.055Z,35.58
2023-05-14T10:32:08.178Z,35.16
2023-05-14T10:34:46.317Z,35.53
2023-05-14T10:37:27.206Z,35.46
2023-05-14T10:40:02.862Z,35.72
2023-05-14T10:42:40.918Z,35.88
2023-05-14T10:45:13.188Z,35.79
2023-05-14T10:47:43.498Z,35.63
2023-05-14T10:50:13.131Z,35.66
2023-05-14T10:52:45.238Z,36.27
2023-05-14T10:55:16.809Z,35.35
2023-05-14T10:57:47.084Z,35.35
2023-05-14T11:00:15.034Z,35.20
2023-05-14T11:02:44.223Z,35.20
2023-05-14T11:05:17.557Z,35.24
2023-05-14T11:07:47.982Z,34.95
2023-05-14T11:10:17.466Z,34.50
2023-05-14T11:12:49.716Z,34.59
2023-05-14T11:15:18.977Z,34.38
2023-05-14T11:17:47.133Z,34.95
2023-05-14T11:20:14.794Z,34.86
2023-05-14T11:22:43.030Z,33.89
2023-05-14T11:25:14.277Z,34.01
2023-05-14T11:27:43.331Z,34.18
2023-05-14T11:30:18.858Z,33.71
2023-05-14T11:32:48.476Z,33.14
2023-05-14T11:35:16.737Z,33.30
2023-05-14T11:37:50.192Z,33.13
2023-05-14T11:40:17.334Z,33.77
2023-05-14T11:42:44.440Z,33.27
2023-05-14T11:45:12.814Z,33.73
2023-05-14T11:47:42.574Z,33.55
2023-05-14T11:50:10.216Z,33.23
2023-05-14T11:52:41.614Z,33.55
2023-05-14T11:55:14.550Z,33.72
2023-05-14T11:57:41.411Z,33.59
2023-05-14T12:00:14.387Z,33.99
2023-05-14T12:02:41.355Z,33.50
2023-05-14T12:05:09.076Z,33.21
2023-05-14T12:07:36.317Z,33.24
2023-05-14T12:10:04.290Z,33.12
2023-05-14T12:12:36.537Z,33.55
2023-05-14T12:15:14.845Z,33.20
2023-05-14T12:17:41.924Z,33.15
2023-05-14T12:20:10.960Z,33.29
2023-05-14T12:22:37.800Z,33.36
2023-05-14T12:25:09.890Z,33.33
2023-05-14T12:27:38.009Z,33.02
2023-05-14T12:30:20.705Z,32.87
2023-05-14T12:32:51.696Z,32.52
2023-05-14T12:35:19.048Z,32.23
2023-05-14T12:37:45.992Z,32.13
2023-05-14T12:40:13.146Z,32.34
2023-05-14T12:42:40.177Z,32.17
2023-05-14T12:45:08.463Z,31.92
2023-05-14T12:47:36.785Z,31.94
2023-05-14T12:50:04.675Z,31.95
2023-05-14T12:55:01.511Z,31.50
2023-05-14T12:57:29.712Z,31.49
2023-05-14T12:59:57.752Z,31.84
2023-05-14T13:02:24.574Z,31.38
2023-05-14T13:04:51.340Z,30.67
2023-05-14T13:07:18.419Z,30.33
2023-05-14T13:09:46.811Z,30.15
2023-05-14T13:12:13.638Z,29.78
2023-05-14T13:14:40.435Z,29.76
2023-05-14T13:17:08.123Z,29.68
2023-05-14T13:19:35.149Z,29.38
2023-05-14T13:22:01.954Z,29.87
2023-05-14T13:24:28.762Z,29.77
2023-05-14T13:26:55.572Z,29.96
2023-05-14T13:29:22.377Z,30.62
2023-05-14T13:31:49.190Z,30.71
2023-05-14T13:34:15.995Z,30.67
2023-05-14T13:36:43.518Z,30.63
2023-05-14T13:39:13.109Z,30.59
2023-05-14T13:41:41.130Z,30.90
2023-05-14T13:44:07.910Z,30.36
2023-05-14T13:46:34.853Z,30.01
2023-05-14T13:49:01.774Z,30.17
2023-05-14T13:51:28.556Z,29.70
2023-05-14T13:56:27.055Z,29.44
2023-05-14T13:58:54.159Z,29.22
2023-05-14T14:01:21.776Z,29.74
2023-05-14T14:03:49.121Z,29.90
2023-05-14T14:06:15.911Z,29.70
2023-05-14T14:08:42.708Z,30.08
2023-05-14T14:11:09.548Z,29.69
2023-05-14T14:13:37.235Z,30.00
2023-05-14T14:16:04.340Z,30.40
2023-05-14T14:18:31.146Z,30.48
2023-05-14T14:20:58.321Z,30.19
2023-05-14T14:23:25.148Z,30.13
2023-05-14T14:25:51.928Z,30.22
2023-05-14T14:28:19.057Z,29.93
2023-05-14T14:30:45.878Z,29.87
2023-05-14T14:33:12.694Z,29.94
2023-05-14T14:35:39.675Z,29.83
2023-05-14T14:38:08.774Z,30.12
2023-05-14T14:40:35.644Z,30.16
2023-05-14T14:43:02.504Z,29.78
2023-05-14T14:45:29.408Z,29.76
2023-05-14T14:48:25.297Z,30.62
2023-05-14T14:50:52.737Z,30.58
2023-05-14T14:53:21.318Z,29.66
2023-05-14T14:55:51.701Z,30.08
2023-05-14T14:58:19.863Z,29.67
2023-05-14T15:00:47.468Z,29.61
2023-05-14T15:03:15.248Z,29.63
2023-05-14T15:05:42.365Z,29.40
2023-05-14T15:08:09.299Z,29.72
2023-05-14T15:10:41.074Z,29.98
2023-05-14T15:13:10.251Z,29.62
2023-05-14T15:15:37.416Z,29.75
2023-05-14T15:18:04.875Z,29.61
2023-05-14T15:20:34.354Z,29.60
2023-05-14T15:23:01.233Z,29.69
2023-05-14T15:25:28.403Z,29.45
2023-05-14T15:27:55.229Z,29.85
2023-05-14T15:30:23.136Z,29.45
2023-05-14T15:32:49.961Z,29.64
2023-05-14T15:35:16.996Z,29.95
2023-05-14T15:37:45.058Z,30.01
2023-05-14T15:40:12.560Z,29.67
2023-05-14T15:42:42.632Z,30.36
2023-05-14T15:45:12.269Z,31.10
2023-05-14T15:47:40.081Z,31.47
2023-05-14T15:50:08.203Z,31.70
2023-05-14T15:52:36.165Z,31.77
2023-05-14T15:55:04.651Z,31.94
2023-05-14T15:57:31.670Z,32.07
2023-05-14T15:59:58.512Z,32.32
2023-05-14T16:02:25.721Z,32.64
2023-05-14T16:04:52.690Z,33.29
2023-05-14T16:07:19.469Z,33.20
2023-05-14T16:09:46.271Z,33.22
2023-05-14T16:12:14.209Z,33.57
2023-05-14T16:14:45.158Z,33.95
2023-05-14T16:17:12.090Z,33.56
2023-05-14T16:19:39.572Z,33.63
2023-05-14T16:22:15.086Z,34.08
2023-05-14T16:24:42.091Z,34.13
2023-05-14T16:27:08.882Z,34.08
2023-05-14T16:29:35.621Z,34.34
2023-05-14T16:32:05.976Z,34.62
2023-05-14T16:34:32.798Z,34.45
2023-05-14T16:36:59.876Z,34.30
2023-05-14T16:39:26.859Z,34.20
2023-05-14T16:41:53.621Z,34.80
2023-05-14T16:44:20.355Z,34.90
2023-05-14T16:46:48.010Z,34.49
2023-05-14T16:49:14.832Z,35.16
2023-05-14T16:51:45.112Z,35.00
2023-05-14T16:54:14.971Z,35.35
2023-05-14T16:56:42.068Z,35.29
2023-05-14T16:59:08.833Z,34.63
2023-05-14T17:01:36.137Z,35.04
2023-05-14T17:04:02.998Z,35.20
2023-05-14T17:06:29.818Z,34.93
2023-05-14T17:08:56.579Z,34.43
2023-05-14T17:11:23.365Z,34.26
2023-05-14T17:13:50.143Z,34.71
2023-05-14T17:16:17.119Z,33.88
2023-05-14T17:18:46.878Z,33.21
2023-05-14T17:21:13.777Z,33.03
2023-05-14T17:23:42.292Z,33.10
2023-05-14T17:26:09.245Z,32.97
2023-05-14T17:28:36.054Z,32.38
2023-05-14T17:31:02.838Z,32.58
2023-05-14T17:33:29.706Z,32.48
2023-05-14T17:35:56.502Z,32.28
2023-05-14T17:38:24.800Z,31.90
2023-05-14T17:40:51.553Z,32.19
2023-05-14T17:43:18.706Z,32.28
2023-05-14T17:45:53.991Z,32.52
2023-05-14T17:48:23.042Z,32.11
2023-05-14T17:50:51.602Z,31.87
2023-05-14T17:53:18.513Z,32.26
2023-05-14T17:55:45.396Z,32.54
2023-05-14T17:58:15.157Z,32.33
2023-05-14T18:00:42.600Z,32.21
2023-05-14T18:03:10.323Z,32.24
2023-05-14T18:05:37.405Z,32.16
2023-05-14T18:08:04.257Z,32.75
2023-05-14T18:10:31.058Z,32.78
2023-05-14T18:12:57.879Z,32.95
2023-05-14T18:15:25.736Z,32.67
2023-05-14T18:17:53.085Z,32.67
2023-05-14T18:20:20.088Z,32.98
2023-05-14T18:22:46.874Z,33.02
2023-05-14T18:25:13.789Z,33.78
2023-05-14T18:27:44.403Z,33.65
2023-05-14T18:30:14.392Z,33.99
2023-05-14T18:32:43.584Z,34.08
2023-05-14T18:35:11.566Z,34.30
2023-05-14T18:37:38.505Z,34.38
2023-05-14T18:40:06.897Z,34.61
2023-05-14T18:42:37.066Z,34.43
2023-05-14T18:45:04.526Z,34.48
2023-05-14T18:47:32.671Z,34.83
2023-05-14T18:50:03.112Z,35.10
2023-05-14T18:52:29.930Z,35.21
2023-05-14T18:54:56.736Z,35.12
2023-05-14T18:57:23.578Z,35.12
2023-05-14T18:59:50.384Z,34.95
2023-05-14T19:02:17.220Z,35.11
2023-05-14T19:04:52.385Z,35.59
2023-05-14T19:07:29.729Z,35.73
2023-05-14T19:09:56.495Z,35.75
2023-05-14T19:12:23.304Z,35.52
2023-05-14T19:14:50.044Z,35.88
2023-05-14T19:17:18.557Z,36.09
2023-05-14T19:19:47.250Z,35.86
2023-05-14T19:22:14.078Z,36.06
2023-05-14T19:24:40.973Z,36.27
2023-05-14T19:27:08.491Z,36.52
2023-05-14T19:29:39.360Z,36.49
2023-05-14T19:32:06.895Z,36.52
2023-05-14T19:34:33.724Z,36.71
2023-05-14T19:37:00.590Z,37.16
2023-05-14T19:39:27.869Z,37.24
2023-05-14T19:41:54.668Z,37.48
2023-05-14T19:44:21.445Z,37.46
2023-05-14T19:46:48.287Z,37.37
2023-05-14T19:49:15.123Z,37.63
2023-05-14T19:51:41.886Z,37.68
2023-05-14T19:54:09.184Z,37.80
2023-05-14T19:56:36.016Z,38.16
2023-05-14T19:59:02.815Z,37.95
2023-05-14T20:01:29.669Z,38.12
2023-05-14T20:03:57.385Z,38.54
2023-05-14T20:06:24.161Z,38.17
2023-05-14T20:08:51.461Z,38.54
2023-05-14T20:11:19.490Z,38.71
2023-05-14T20:13:46.387Z,38.89
2023-05-14T20:16:16.569Z,38.92
2023-05-14T20:18:44.423Z,39.10
2023-05-14T20:21:11.534Z,38.95
2023-05-14T20:23:38.366Z,39.05
2023-05-14T20:26:05.132Z,39.41
2023-05-14T20:28:31.943Z,39.61
2023-05-14T20:31:00.082Z,39.46
2023-05-14T20:33:28.922Z,39.59
2023-05-14T20:35:55.820Z,39.60
2023-05-14T20:38:23.418Z,39.65
2023-05-14T20:40:50.383Z,39.36
2023-05-14T20:43:17.226Z,39.50
2023-05-14T20:45:44.020Z,39.58
2023-05-14T20:48:12.739Z,39.74
2023-05-14T20:50:39.491Z,39.84
2023-05-14T20:53:06.300Z,39.52
2023-05-14T20:55:33.209Z,39.69
2023-05-14T20:58:00.055Z,39.94
2023-05-14T21:00:26.900Z,40.17
2023-05-14T21:02:53.749Z,40.20
2023-05-14T21:05:20.914Z,39.83
2023-05-14T21:07:48.041Z,40.01
2023-05-14T21:10:14.888Z,39.98
2023-05-14T21:12:42.725Z,40.21
2023-05-14T21:15:10.883Z,40.30
2023-05-14T21:17:37.799Z,40.19
2023-05-14T21:20:04.986Z,40.21
2023-05-14T21:22:31.761Z,40.40
2023-05-14T21:24:58.583Z,40.47
2023-05-14T21:27:26.512Z,40.47
2023-05-14T21:29:53.332Z,40.55
2023-05-14T21:32:22.133Z,40.46
2023-05-14T21:34:49.200Z,40.42
2023-05-14T21:37:16.070Z,40.59
2023-05-14T21:39:42.854Z,40.69
2023-05-14T21:42:09.867Z,40.86
2023-05-14T21:44:36.708Z,40.58
2023-05-14T21:47:04.282Z,40.84
2023-05-14T21:49:31.073Z,40.79
2023-05-14T21:51:57.872Z,40.89
2023-05-14T21:54:24.646Z,40.69
2023-05-14T21:56:51.456Z,40.87
2023-05-14T21:59:18.252Z,41.07
2023-05-14T22:02:05.510Z,40.95
2023-05-14T22:04:31.904Z,41.00
2023-05-14T22:06:58.734Z,41.16
2023-05-14T22:09:25.834Z,41.20
2023-05-14T22:11:52.657Z,41.16
2023-05-14T22:14:19.449Z,41.41
2023-05-14T22:16:46.318Z,41.20
2023-05-14T22:19:13.292Z,41.22
2023-05-14T22:21:40.192Z,41.25
2023-05-14T22:24:07.467Z,41.77
2023-05-14T22:26:35.082Z,41.47
2023-05-14T22:29:01.941Z,41.82
2023-05-14T22:31:29.242Z,41.87
2023-05-14T22:33:56.133Z,41.55
2023-05-14T22:36:23.121Z,41.86
2023-05-14T22:38:49.934Z,42.01
2023-05-14T22:41:17.609Z,41.95
2023-05-14T22:43:44.476Z,42.04
2023-05-14T22:46:11.318Z,41.80
2023-05-14T22:48:38.156Z,42.20
2023-05-14T22:51:05.173Z,42.19
2023-05-14T22:53:31.968Z,42.17
2023-05-14T22:55:58.818Z,42.39
2023-05-14T22:58:25.563Z,42.26
2023-05-14T23:00:52.447Z,42.29
2023-05-14T23:03:19.215Z,42.52
2023-05-14T23:05:46.010Z,42.58
2023-05-14T23:08:12.808Z,42.79
2023-05-14T23:10:39.605Z,42.74
2023-05-14T23:13:06.375Z,42.66
2023-05-14T23:15:33.285Z,42.67
2023-05-14T23:18:00.282Z,42.66
2023-05-14T23:20:27.210Z,42.71
2023-05-14T23:22:54.117Z,42.72
2023-05-14T23:25:20.973Z,42.69
2023-05-14T23:27:48.166Z,42.72
2023-05-14T23:30:14.985Z,42.68
2023-05-14T23:32:41.775Z,43.01
2023-05-14T23:35:08.977Z,42.96
2023-05-14T23:37:41.500Z,43.13
2023-05-14T23:40:09.588Z,43.02
2023-05-14T23:42:36.384Z,43.04
2023-05-14T23:45:03.388Z,43.04
2023-05-14T23:47:30.325Z,43.20
2023-05-14T23:49:57.294Z,43.11
2023-05-14T23:52:24.076Z,43.15
2023-05-14T23:54:50.815Z,43.04
2023-05-14T23:57:17.612Z,43.50
2023-05-14T23:59:44.387Z,43.23
